sensor_id;sensor_type;location;lat;lon;timestamp;pressure;altitude;pressure_sealevel;temperature;humidity
47636;BME280;33364;50.766;15.338;2023-07-22T00:02:23;94744.94;;;19.17;61.35
47636;BME280;33364;50.766;15.338;2023-07-22T00:04:49;94748.75;;;18.73;62.55
47636;BME280;33364;50.766;15.338;2023-07-22T00:07:15;94748.06;;;18.76;62.28
47636;BME280;33364;50.766;15.338;2023-07-22T00:09:42;94748.66;;;18.69;62.67
47636;BME280;33364;50.766;15.338;2023-07-22T00:12:08;94745.75;;;18.34;63.40
47636;BME280;33364;50.766;15.338;2023-07-22T00:14:38;94761.78;;;18.74;62.44
47636;BME280;33364;50.766;15.338;2023-07-22T00:17:04;94767.91;;;18.75;62.12
47636;BME280;33364;50.766;15.338;2023-07-22T00:19:30;94755.03;;;18.92;61.40
47636;BME280;33364;50.766;15.338;2023-07-22T00:21:56;94764.72;;;18.69;61.51
47636;BME280;33364;50.766;15.338;2023-07-22T00:24:21;94756.38;;;18.59;62.59
47636;BME280;33364;50.766;15.338;2023-07-22T00:26:48;94765.81;;;18.28;62.54
47636;BME280;33364;50.766;15.338;2023-07-22T00:29:15;94764.00;;;18.44;62.80
47636;BME280;33364;50.766;15.338;2023-07-22T00:31:42;94755.75;;;18.77;62.09
47636;BME280;33364;50.766;15.338;2023-07-22T00:34:08;94750.88;;;18.67;61.04
47636;BME280;33364;50.766;15.338;2023-07-22T00:36:34;94755.69;;;18.89;61.07
47636;BME280;33364;50.766;15.338;2023-07-22T00:39:00;94753.28;;;19.00;60.63
47636;BME280;33364;50.766;15.338;2023-07-22T00:41:27;94753.75;;;19.02;60.34
47636;BME280;33364;50.766;15.338;2023-07-22T00:43:54;94752.72;;;19.07;60.28
47636;BME280;33364;50.766;15.338;2023-07-22T00:46:20;94749.00;;;19.11;59.77
47636;BME280;33364;50.766;15.338;2023-07-22T00:48:47;94761.25;;;18.96;59.72
47636;BME280;33364;50.766;15.338;2023-07-22T00:51:14;94749.00;;;19.11;59.58
47636;BME280;33364;50.766;15.338;2023-07-22T00:53:39;94757.88;;;18.72;59.07
47636;BME280;33364;50.766;15.338;2023-07-22T00:56:05;94756.38;;;18.86;60.28
47636;BME280;33364;50.766;15.338;2023-07-22T00:58:32;94757.81;;;18.16;61.27
47636;BME280;33364;50.766;15.338;2023-07-22T01:00:59;94750.81;;;18.24;61.63
47636;BME280;33364;50.766;15.338;2023-07-22T01:03:24;94751.16;;;18.50;62.45
47636;BME280;33364;50.766;15.338;2023-07-22T01:05:54;94753.31;;;18.72;61.04
47636;BME280;33364;50.766;15.338;2023-07-22T01:08:20;94759.69;;;18.68;60.45
47636;BME280;33364;50.766;15.338;2023-07-22T01:10:46;94765.53;;;18.58;60.73
47636;BME280;33364;50.766;15.338;2023-07-22T01:13:13;94763.16;;;18.28;61.24
47636;BME280;33364;50.766;15.338;2023-07-22T01:15:40;94756.19;;;17.99;62.42
47636;BME280;33364;50.766;15.338;2023-07-22T01:18:07;94761.59;;;18.15;63.01
47636;BME280;33364;50.766;15.338;2023-07-22T01:20:33;94757.31;;;17.86;61.96
47636;BME280;33364;50.766;15.338;2023-07-22T01:22:59;94758.91;;;18.27;61.64
47636;BME280;33364;50.766;15.338;2023-07-22T01:25:27;94756.75;;;17.93;62.46
47636;BME280;33364;50.766;15.338;2023-07-22T01:27:53;94758.91;;;18.27;61.49
47636;BME280;33364;50.766;15.338;2023-07-22T01:30:19;94758.66;;;18.44;61.01
47636;BME280;33364;50.766;15.338;2023-07-22T01:32:46;94761.69;;;18.31;61.36
47636;BME280;33364;50.766;15.338;2023-07-22T01:35:12;94755.53;;;18.42;60.62
47636;BME280;33364;50.766;15.338;2023-07-22T01:37:38;94757.38;;;17.29;62.77
47636;BME280;33364;50.766;15.338;2023-07-22T01:40:05;94765.19;;;17.58;63.90
47636;BME280;33364;50.766;15.338;2023-07-22T01:42:41;94771.63;;;17.45;63.26
47636;BME280;33364;50.766;15.338;2023-07-22T01:45:08;94764.09;;;17.71;62.55
47636;BME280;33364;50.766;15.338;2023-07-22T01:47:35;94768.09;;;18.02;62.34
47636;BME280;33364;50.766;15.338;2023-07-22T01:50:02;94759.88;;;17.95;60.71
47636;BME280;33364;50.766;15.338;2023-07-22T01:52:28;94764.94;;;16.82;62.91
47636;BME280;33364;50.766;15.338;2023-07-22T01:54:54;94769.84;;;16.80;63.53
47636;BME280;33364;50.766;15.338;2023-07-22T01:57:20;94770.28;;;15.78;66.41
47636;BME280;33364;50.766;15.338;2023-07-22T01:59:46;94774.00;;;15.86;68.03
47636;BME280;33364;50.766;15.338;2023-07-22T02:02:11;94777.59;;;16.52;67.81
47636;BME280;33364;50.766;15.338;2023-07-22T02:04:37;94772.78;;;16.66;67.20
47636;BME280;33364;50.766;15.338;2023-07-22T02:07:03;94772.50;;;17.13;63.53
47636;BME280;33364;50.766;15.338;2023-07-22T02:09:29;94769.91;;;16.71;62.85
47636;BME280;33364;50.766;15.338;2023-07-22T02:11:54;94779.03;;;16.50;65.43
47636;BME280;33364;50.766;15.338;2023-07-22T02:14:20;94777.31;;;16.03;66.06
47636;BME280;33364;50.766;15.338;2023-07-22T02:16:46;94770.69;;;16.51;66.90
47636;BME280;33364;50.766;15.338;2023-07-22T02:19:12;94774.84;;;16.81;64.98
47636;BME280;33364;50.766;15.338;2023-07-22T02:21:38;94776.28;;;16.58;64.15
47636;BME280;33364;50.766;15.338;2023-07-22T02:24:04;94784.25;;;17.00;64.55
47636;BME280;33364;50.766;15.338;2023-07-22T02:26:30;94778.72;;;17.17;63.25
47636;BME280;33364;50.766;15.338;2023-07-22T02:28:56;94781.78;;;17.52;62.24
47636;BME280;33364;50.766;15.338;2023-07-22T02:31:21;94777.34;;;16.66;61.84
47636;BME280;33364;50.766;15.338;2023-07-22T02:33:51;94793.72;;;17.09;63.10
47636;BME280;33364;50.766;15.338;2023-07-22T02:36:16;94790.84;;;16.81;61.60
47636;BME280;33364;50.766;15.338;2023-07-22T02:38:42;94785.97;;;17.28;62.93
47636;BME280;33364;50.766;15.338;2023-07-22T02:41:08;94784.66;;;17.47;61.49
47636;BME280;33364;50.766;15.338;2023-07-22T02:43:34;94790.81;;;17.59;59.85
47636;BME280;33364;50.766;15.338;2023-07-22T02:46:02;94778.69;;;17.74;60.71
47636;BME280;33364;50.766;15.338;2023-07-22T02:48:29;94782.59;;;17.64;58.57
47636;BME280;33364;50.766;15.338;2023-07-22T02:50:55;94801.94;;;17.61;60.42
47636;BME280;33364;50.766;15.338;2023-07-22T02:53:21;94795.06;;;17.85;59.99
47636;BME280;33364;50.766;15.338;2023-07-22T02:55:46;94799.84;;;17.79;59.62
47636;BME280;33364;50.766;15.338;2023-07-22T02:58:12;94797.94;;;17.80;59.13
47636;BME280;33364;50.766;15.338;2023-07-22T03:00:38;94796.38;;;17.91;59.28
47636;BME280;33364;50.766;15.338;2023-07-22T03:03:04;94805.72;;;18.09;58.83
47636;BME280;33364;50.766;15.338;2023-07-22T03:05:31;94800.06;;;17.86;58.46
47636;BME280;33364;50.766;15.338;2023-07-22T03:07:58;94814.09;;;17.95;59.11
47636;BME280;33364;50.766;15.338;2023-07-22T03:10:25;94809.75;;;18.03;58.58
47636;BME280;33364;50.766;15.338;2023-07-22T03:12:51;94820.31;;;17.63;59.76
47636;BME280;33364;50.766;15.338;2023-07-22T03:15:24;94818.97;;;17.69;60.47
47636;BME280;33364;50.766;15.338;2023-07-22T03:17:52;94819.78;;;17.82;59.55
47636;BME280;33364;50.766;15.338;2023-07-22T03:20:18;94822.09;;;17.71;58.88
47636;BME280;33364;50.766;15.338;2023-07-22T03:22:45;94829.75;;;16.82;62.22
47636;BME280;33364;50.766;15.338;2023-07-22T03:25:12;94834.63;;;16.80;62.63
47636;BME280;33364;50.766;15.338;2023-07-22T03:27:39;94826.81;;;17.08;62.61
47636;BME280;33364;50.766;15.338;2023-07-22T03:30:05;94829.00;;;17.27;61.77
47636;BME280;33364;50.766;15.338;2023-07-22T03:32:36;94837.25;;;17.34;61.11
47636;BME280;33364;50.766;15.338;2023-07-22T03:35:02;94851.13;;;16.95;62.14
47636;BME280;33364;50.766;15.338;2023-07-22T03:37:29;94841.84;;;16.80;62.50
47636;BME280;33364;50.766;15.338;2023-07-22T03:39:55;94838.13;;;17.26;62.21
47636;BME280;33364;50.766;15.338;2023-07-22T03:42:21;94850.44;;;16.85;62.66
47636;BME280;33364;50.766;15.338;2023-07-22T03:44:46;94851.78;;;17.24;62.37
47636;BME280;33364;50.766;15.338;2023-07-22T03:47:12;94844.38;;;17.42;61.01
47636;BME280;33364;50.766;15.338;2023-07-22T03:49:38;94846.56;;;17.61;60.59
47636;BME280;33364;50.766;15.338;2023-07-22T03:52:04;94840.66;;;17.55;60.49
47636;BME280;33364;50.766;15.338;2023-07-22T03:54:30;94848.56;;;17.64;60.19
47636;BME280;33364;50.766;15.338;2023-07-22T03:56:56;94849.25;;;17.40;60.66
47636;BME280;33364;50.766;15.338;2023-07-22T03:59:22;94843.66;;;17.21;61.47
47636;BME280;33364;50.766;15.338;2023-07-22T04:01:47;94836.88;;;15.99;66.72
47636;BME280;33364;50.766;15.338;2023-07-22T04:04:13;94844.97;;;16.61;64.92
47636;BME280;33364;50.766;15.338;2023-07-22T04:06:39;94845.34;;;16.51;65.24
47636;BME280;33364;50.766;15.338;2023-07-22T04:09:05;94848.47;;;16.53;64.77
47636;BME280;33364;50.766;15.338;2023-07-22T04:11:31;94847.72;;;16.73;64.53
47636;BME280;33364;50.766;15.338;2023-07-22T04:13:56;94853.28;;;17.01;63.70
47636;BME280;33364;50.766;15.338;2023-07-22T04:16:22;94853.63;;;16.79;64.25
47636;BME280;33364;50.766;15.338;2023-07-22T04:18:48;94852.09;;;17.11;63.40
47636;BME280;33364;50.766;15.338;2023-07-22T04:21:14;94851.72;;;17.33;62.40
47636;BME280;33364;50.766;15.338;2023-07-22T04:23:39;94853.53;;;16.87;64.34
47636;BME280;33364;50.766;15.338;2023-07-22T04:26:05;94860.69;;;16.96;63.38
47636;BME280;33364;50.766;15.338;2023-07-22T04:28:34;94868.09;;;17.11;63.28
47636;BME280;33364;50.766;15.338;2023-07-22T04:31:00;94862.63;;;17.40;62.60
47636;BME280;33364;50.766;15.338;2023-07-22T04:33:27;94859.69;;;17.21;63.05
47636;BME280;33364;50.766;15.338;2023-07-22T04:35:58;94861.50;;;17.41;62.89
47636;BME280;33364;50.766;15.338;2023-07-22T04:38:24;94867.06;;;17.36;63.02
47636;BME280;33364;50.766;15.338;2023-07-22T04:40:50;94865.94;;;17.37;62.95
47636;BME280;33364;50.766;15.338;2023-07-22T04:43:16;94870.88;;;17.47;62.25
47636;BME280;33364;50.766;15.338;2023-07-22T04:45:46;94875.97;;;17.40;61.91
47636;BME280;33364;50.766;15.338;2023-07-22T04:48:19;94877.31;;;17.13;63.45
47636;BME280;33364;50.766;15.338;2023-07-22T04:50:45;94879.50;;;17.32;62.96
47636;BME280;33364;50.766;15.338;2023-07-22T04:53:12;94886.47;;;17.57;62.30
47636;BME280;33364;50.766;15.338;2023-07-22T04:55:41;94884.31;;;17.06;64.53
47636;BME280;33364;50.766;15.338;2023-07-22T04:58:07;94876.88;;;17.44;62.42
47636;BME280;33364;50.766;15.338;2023-07-22T05:00:39;94878.13;;;17.59;62.12
47636;BME280;33364;50.766;15.338;2023-07-22T05:03:05;94875.78;;;17.57;62.07
47636;BME280;33364;50.766;15.338;2023-07-22T05:05:32;94884.78;;;17.86;61.44
47636;BME280;33364;50.766;15.338;2023-07-22T05:07:57;94883.00;;;17.90;60.69
47636;BME280;33364;50.766;15.338;2023-07-22T05:10:23;94890.63;;;17.67;62.05
47636;BME280;33364;50.766;15.338;2023-07-22T05:12:49;94901.09;;;17.72;61.06
47636;BME280;33364;50.766;15.338;2023-07-22T05:15:15;94904.34;;;17.78;61.73
47636;BME280;33364;50.766;15.338;2023-07-22T05:17:41;94898.34;;;17.15;64.22
47636;BME280;33364;50.766;15.338;2023-07-22T05:20:07;94896.56;;;17.19;63.23
47636;BME280;33364;50.766;15.338;2023-07-22T05:22:39;94899.72;;;16.00;67.20
47636;BME280;33364;50.766;15.338;2023-07-22T05:25:06;94902.69;;;15.52;69.11
47636;BME280;33364;50.766;15.338;2023-07-22T05:27:32;94916.16;;;15.47;69.29
47636;BME280;33364;50.766;15.338;2023-07-22T05:29:59;94912.13;;;14.80;70.82
47636;BME280;33364;50.766;15.338;2023-07-22T05:32:24;94905.25;;;15.05;70.52
47636;BME280;33364;50.766;15.338;2023-07-22T05:34:51;94909.81;;;14.79;72.39
47636;BME280;33364;50.766;15.338;2023-07-22T05:37:16;94898.84;;;15.06;71.03
47636;BME280;33364;50.766;15.338;2023-07-22T05:39:42;94908.84;;;15.27;69.84
47636;BME280;33364;50.766;15.338;2023-07-22T05:42:08;94905.19;;;15.40;69.59
47636;BME280;33364;50.766;15.338;2023-07-22T05:44:34;94906.34;;;15.04;69.02
47636;BME280;33364;50.766;15.338;2023-07-22T05:46:59;94917.59;;;15.53;69.13
47636;BME280;33364;50.766;15.338;2023-07-22T05:49:25;94913.34;;;15.52;67.44
47636;BME280;33364;50.766;15.338;2023-07-22T05:51:51;94911.16;;;15.54;68.38
47636;BME280;33364;50.766;15.338;2023-07-22T05:54:17;94912.59;;;15.17;68.05
47636;BME280;33364;50.766;15.338;2023-07-22T05:56:43;94914.88;;;15.44;68.68
47636;BME280;33364;50.766;15.338;2023-07-22T05:59:09;94911.47;;;15.35;68.91
47636;BME280;33364;50.766;15.338;2023-07-22T06:01:34;94911.94;;;15.54;68.45
47636;BME280;33364;50.766;15.338;2023-07-22T06:04:00;94927.47;;;15.09;69.24
47636;BME280;33364;50.766;15.338;2023-07-22T06:06:27;94924.31;;;15.33;69.23
47636;BME280;33364;50.766;15.338;2023-07-22T06:08:53;94921.97;;;15.14;68.81
47636;BME280;33364;50.766;15.338;2023-07-22T06:11:18;94927.78;;;15.08;69.28
47636;BME280;33364;50.766;15.338;2023-07-22T06:13:44;94926.34;;;15.02;68.89
47636;BME280;33364;50.766;15.338;2023-07-22T06:16:10;94931.06;;;15.13;69.17
47636;BME280;33364;50.766;15.338;2023-07-22T06:18:36;94927.47;;;15.27;70.81
47636;BME280;33364;50.766;15.338;2023-07-22T06:21:02;94927.28;;;15.32;70.21
47636;BME280;33364;50.766;15.338;2023-07-22T06:23:28;94923.25;;;14.74;68.19
47636;BME280;33364;50.766;15.338;2023-07-22T06:25:54;94927.31;;;14.97;68.29
47636;BME280;33364;50.766;15.338;2023-07-22T06:28:19;94936.38;;;14.88;68.77
47636;BME280;33364;50.766;15.338;2023-07-22T06:30:45;94931.38;;;15.03;68.96
47636;BME280;33364;50.766;15.338;2023-07-22T06:33:11;94937.00;;;15.02;69.51
47636;BME280;33364;50.766;15.338;2023-07-22T06:35:37;94935.44;;;14.75;68.03
47636;BME280;33364;50.766;15.338;2023-07-22T06:38:02;94938.06;;;14.66;70.68
47636;BME280;33364;50.766;15.338;2023-07-22T06:40:28;94942.81;;;14.95;70.61
47636;BME280;33364;50.766;15.338;2023-07-22T06:42:54;94940.91;;;15.13;69.43
47636;BME280;33364;50.766;15.338;2023-07-22T06:45:20;94938.25;;;15.21;67.14
47636;BME280;33364;50.766;15.338;2023-07-22T06:47:46;94946.69;;;15.23;67.66
47636;BME280;33364;50.766;15.338;2023-07-22T06:50:12;94958.28;;;14.93;67.89
47636;BME280;33364;50.766;15.338;2023-07-22T06:52:38;94951.97;;;14.55;67.33
47636;BME280;33364;50.766;15.338;2023-07-22T06:55:04;94967.13;;;14.46;68.16
47636;BME280;33364;50.766;15.338;2023-07-22T06:57:31;94956.72;;;14.84;68.69
47636;BME280;33364;50.766;15.338;2023-07-22T06:59:56;94962.59;;;14.55;68.42
47636;BME280;33364;50.766;15.338;2023-07-22T07:02:22;94970.19;;;14.96;67.06
47636;BME280;33364;50.766;15.338;2023-07-22T07:04:49;94968.44;;;15.08;66.85
47636;BME280;33364;50.766;15.338;2023-07-22T07:07:15;94967.53;;;15.21;65.98
47636;BME280;33364;50.766;15.338;2023-07-22T07:09:41;94974.88;;;15.42;65.54
47636;BME280;33364;50.766;15.338;2023-07-22T07:12:07;94971.91;;;15.52;64.70
47636;BME280;33364;50.766;15.338;2023-07-22T07:14:34;94965.41;;;15.87;63.48
47636;BME280;33364;50.766;15.338;2023-07-22T07:17:00;94963.16;;;16.07;63.90
47636;BME280;33364;50.766;15.338;2023-07-22T07:19:28;94973.22;;;16.30;61.97
47636;BME280;33364;50.766;15.338;2023-07-22T07:21:53;94971.03;;;15.94;62.56
47636;BME280;33364;50.766;15.338;2023-07-22T07:24:19;94965.75;;;15.60;64.19
47636;BME280;33364;50.766;15.338;2023-07-22T07:26:45;94966.72;;;15.47;62.58
47636;BME280;33364;50.766;15.338;2023-07-22T07:29:11;94968.78;;;15.33;63.15
47636;BME280;33364;50.766;15.338;2023-07-22T07:31:38;94979.69;;;15.40;63.56
47636;BME280;33364;50.766;15.338;2023-07-22T07:34:04;94981.56;;;15.65;63.93
47636;BME280;33364;50.766;15.338;2023-07-22T07:36:29;94976.31;;;16.03;63.08
47636;BME280;33364;50.766;15.338;2023-07-22T07:38:55;94979.38;;;15.67;62.52
47636;BME280;33364;50.766;15.338;2023-07-22T07:41:21;94984.38;;;15.86;62.13
47636;BME280;33364;50.766;15.338;2023-07-22T07:43:47;94984.19;;;15.91;61.44
47636;BME280;33364;50.766;15.338;2023-07-22T07:48:44;94989.28;;;16.13;60.76
47636;BME280;33364;50.766;15.338;2023-07-22T07:51:12;94989.78;;;16.44;59.73
47636;BME280;33364;50.766;15.338;2023-07-22T07:53:38;94980.28;;;17.14;59.21
47636;BME280;33364;50.766;15.338;2023-07-22T07:56:04;94988.44;;;17.39;60.46
47636;BME280;33364;50.766;15.338;2023-07-22T07:58:30;94992.28;;;17.83;58.17
47636;BME280;33364;50.766;15.338;2023-07-22T08:00:56;94988.75;;;17.91;57.47
47636;BME280;33364;50.766;15.338;2023-07-22T08:03:23;94986.88;;;18.03;56.14
47636;BME280;33364;50.766;15.338;2023-07-22T08:05:48;94981.94;;;17.81;56.17
47636;BME280;33364;50.766;15.338;2023-07-22T08:08:14;94980.44;;;17.71;57.34
47636;BME280;33364;50.766;15.338;2023-07-22T08:10:40;94987.19;;;17.36;58.68
47636;BME280;33364;50.766;15.338;2023-07-22T08:13:06;94990.44;;;17.21;58.21
47636;BME280;33364;50.766;15.338;2023-07-22T08:15:32;94992.13;;;17.46;57.71
47636;BME280;33364;50.766;15.338;2023-07-22T08:17:58;94989.28;;;17.84;57.20
47636;BME280;33364;50.766;15.338;2023-07-22T08:20:23;94998.00;;;18.05;57.35
47636;BME280;33364;50.766;15.338;2023-07-22T08:22:49;95000.59;;;18.26;56.84
47636;BME280;33364;50.766;15.338;2023-07-22T08:25:15;94998.38;;;18.40;56.72
47636;BME280;33364;50.766;15.338;2023-07-22T08:27:41;95000.84;;;18.45;57.93
47636;BME280;33364;50.766;15.338;2023-07-22T08:30:07;95004.34;;;18.58;57.04
47636;BME280;33364;50.766;15.338;2023-07-22T08:32:33;95001.84;;;18.29;54.75
47636;BME280;33364;50.766;15.338;2023-07-22T08:34:59;95004.75;;;18.24;55.48
47636;BME280;33364;50.766;15.338;2023-07-22T08:37:25;95001.59;;;17.77;56.14
47636;BME280;33364;50.766;15.338;2023-07-22T08:39:51;95001.81;;;17.71;56.29
47636;BME280;33364;50.766;15.338;2023-07-22T08:42:18;94999.03;;;17.47;57.82
47636;BME280;33364;50.766;15.338;2023-07-22T08:44:48;95008.66;;;17.81;55.75
47636;BME280;33364;50.766;15.338;2023-07-22T08:47:16;95012.13;;;18.39;55.78
47636;BME280;33364;50.766;15.338;2023-07-22T08:49:46;95013.88;;;18.23;54.15
47636;BME280;33364;50.766;15.338;2023-07-22T08:52:15;95010.47;;;18.01;54.47
47636;BME280;33364;50.766;15.338;2023-07-22T08:54:42;95016.88;;;18.21;55.50
47636;BME280;33364;50.766;15.338;2023-07-22T08:57:11;95010.22;;;18.51;54.34
47636;BME280;33364;50.766;15.338;2023-07-22T08:59:37;95021.09;;;18.22;53.46
47636;BME280;33364;50.766;15.338;2023-07-22T09:02:04;95015.69;;;17.98;55.19
47636;BME280;33364;50.766;15.338;2023-07-22T09:04:30;95014.25;;;17.67;55.60
47636;BME280;33364;50.766;15.338;2023-07-22T09:06:56;95017.91;;;17.42;55.69
47636;BME280;33364;50.766;15.338;2023-07-22T09:09:24;95011.00;;;17.41;56.29
47636;BME280;33364;50.766;15.338;2023-07-22T09:11:51;95015.78;;;16.10;58.31
47636;BME280;33364;50.766;15.338;2023-07-22T09:14:19;95015.03;;;16.47;58.26
47636;BME280;33364;50.766;15.338;2023-07-22T09:16:45;95019.97;;;16.28;59.19
47636;BME280;33364;50.766;15.338;2023-07-22T09:19:11;95018.66;;;15.96;59.44
47636;BME280;33364;50.766;15.338;2023-07-22T09:21:37;95023.34;;;15.99;61.29
47636;BME280;33364;50.766;15.338;2023-07-22T09:24:20;95021.47;;;15.99;60.70
47636;BME280;33364;50.766;15.338;2023-07-22T09:26:47;95043.56;;;15.91;59.89
47636;BME280;33364;50.766;15.338;2023-07-22T09:29:12;95028.94;;;16.15;59.83
47636;BME280;33364;50.766;15.338;2023-07-22T09:31:52;95036.22;;;16.43;59.07
47636;BME280;33364;50.766;15.338;2023-07-22T09:34:18;95033.41;;;17.49;58.91
47636;BME280;33364;50.766;15.338;2023-07-22T09:36:51;95028.91;;;18.27;56.19
47636;BME280;33364;50.766;15.338;2023-07-22T09:39:17;95034.72;;;19.26;55.43
47636;BME280;33364;50.766;15.338;2023-07-22T09:41:44;95027.69;;;19.22;54.11
47636;BME280;33364;50.766;15.338;2023-07-22T09:44:10;95022.31;;;19.74;51.73
47636;BME280;33364;50.766;15.338;2023-07-22T09:46:39;95024.09;;;19.82;52.42
47636;BME280;33364;50.766;15.338;2023-07-22T09:49:07;95024.31;;;20.20;50.01
47636;BME280;33364;50.766;15.338;2023-07-22T09:51:38;95013.16;;;19.75;48.13
47636;BME280;33364;50.766;15.338;2023-07-22T09:54:05;95006.81;;;19.27;49.85
47636;BME280;33364;50.766;15.338;2023-07-22T09:56:33;95019.63;;;18.70;50.62
47636;BME280;33364;50.766;15.338;2023-07-22T09:59:08;95015.13;;;19.10;51.98
47636;BME280;33364;50.766;15.338;2023-07-22T10:01:38;95017.28;;;18.80;51.30
47636;BME280;33364;50.766;15.338;2023-07-22T10:04:06;95023.53;;;18.60;52.83
47636;BME280;33364;50.766;15.338;2023-07-22T10:06:33;95012.53;;;17.84;53.70
47636;BME280;33364;50.766;15.338;2023-07-22T10:09:03;95029.72;;;17.95;54.81
47636;BME280;33364;50.766;15.338;2023-07-22T10:11:35;95030.16;;;17.64;54.02
47636;BME280;33364;50.766;15.338;2023-07-22T10:14:04;95032.16;;;17.46;55.86
47636;BME280;33364;50.766;15.338;2023-07-22T10:16:30;95038.59;;;17.04;55.88
47636;BME280;33364;50.766;15.338;2023-07-22T10:18:57;95044.59;;;17.21;55.97
47636;BME280;33364;50.766;15.338;2023-07-22T10:21:24;95032.84;;;16.93;55.54
47636;BME280;33364;50.766;15.338;2023-07-22T10:23:51;95032.47;;;17.24;54.90
47636;BME280;33364;50.766;15.338;2023-07-22T10:26:19;95042.19;;;17.08;54.88
47636;BME280;33364;50.766;15.338;2023-07-22T10:28:46;95032.94;;;17.26;54.27
47636;BME280;33364;50.766;15.338;2023-07-22T10:31:14;95030.09;;;17.72;54.03
47636;BME280;33364;50.766;15.338;2023-07-22T10:33:47;95033.78;;;18.13;53.59
47636;BME280;33364;50.766;15.338;2023-07-22T10:36:15;95021.59;;;18.73;51.70
47636;BME280;33364;50.766;15.338;2023-07-22T10:38:55;95022.31;;;18.82;51.47
47636;BME280;33364;50.766;15.338;2023-07-22T10:41:21;95027.88;;;18.65;50.47
47636;BME280;33364;50.766;15.338;2023-07-22T10:43:58;95026.41;;;18.10;52.43
47636;BME280;33364;50.766;15.338;2023-07-22T10:46:38;95026.88;;;18.24;52.91
47636;BME280;33364;50.766;15.338;2023-07-22T10:49:13;95022.03;;;18.38;52.21
47636;BME280;33364;50.766;15.338;2023-07-22T10:51:40;95029.09;;;18.55;51.58
47636;BME280;33364;50.766;15.338;2023-07-22T10:54:13;95031.03;;;18.34;51.05
47636;BME280;33364;50.766;15.338;2023-07-22T10:56:44;95030.53;;;18.07;51.63
47636;BME280;33364;50.766;15.338;2023-07-22T10:59:11;95033.66;;;17.56;54.00
47636;BME280;33364;50.766;15.338;2023-07-22T11:01:43;95030.91;;;17.85;55.07
47636;BME280;33364;50.766;15.338;2023-07-22T11:09:36;95030.13;;;18.18;50.39
47636;BME280;33364;50.766;15.338;2023-07-22T11:12:11;95029.38;;;18.29;51.21
47636;BME280;33364;50.766;15.338;2023-07-22T11:14:45;95033.31;;;18.11;50.82
47636;BME280;33364;50.766;15.338;2023-07-22T11:17:11;95033.69;;;18.22;50.89
47636;BME280;33364;50.766;15.338;2023-07-22T11:19:37;95033.47;;;18.27;50.09
47636;BME280;33364;50.766;15.338;2023-07-22T11:22:04;95036.03;;;18.23;49.53
47636;BME280;33364;50.766;15.338;2023-07-22T11:24:35;95036.25;;;18.18;51.18
47636;BME280;33364;50.766;15.338;2023-07-22T11:27:06;95040.25;;;18.12;49.30
47636;BME280;33364;50.766;15.338;2023-07-22T11:29:32;95044.44;;;18.01;49.76
47636;BME280;33364;50.766;15.338;2023-07-22T11:31:58;95042.22;;;18.03;51.09
47636;BME280;33364;50.766;15.338;2023-07-22T11:34:24;95037.50;;;18.33;50.20
47636;BME280;33364;50.766;15.338;2023-07-22T11:36:52;95040.31;;;18.48;49.72
47636;BME280;33364;50.766;15.338;2023-07-22T11:39:20;95028.09;;;18.60;49.08
47636;BME280;33364;50.766;15.338;2023-07-22T11:41:48;95031.19;;;18.62;48.48
47636;BME280;33364;50.766;15.338;2023-07-22T11:44:16;95024.72;;;18.63;49.38
47636;BME280;33364;50.766;15.338;2023-07-22T11:46:58;95008.78;;;19.42;46.57
47636;BME280;33364;50.766;15.338;2023-07-22T11:49:36;95012.38;;;19.74;46.72
47636;BME280;33364;50.766;15.338;2023-07-22T11:52:04;95006.44;;;19.53;47.13
47636;BME280;33364;50.766;15.338;2023-07-22T11:54:31;95017.53;;;19.39;46.86
47636;BME280;33364;50.766;15.338;2023-07-22T11:57:13;95018.44;;;19.19;47.16
47636;BME280;33364;50.766;15.338;2023-07-22T11:59:43;95008.81;;;19.30;48.19
47636;BME280;33364;50.766;15.338;2023-07-22T12:02:16;95009.97;;;19.17;45.92
47636;BME280;33364;50.766;15.338;2023-07-22T12:04:42;95019.56;;;19.18;45.90
47636;BME280;33364;50.766;15.338;2023-07-22T12:07:28;95019.16;;;18.80;43.75
47636;BME280;33364;50.766;15.338;2023-07-22T12:09:56;95018.72;;;18.78;44.12
47636;BME280;33364;50.766;15.338;2023-07-22T12:12:42;95023.41;;;18.81;44.23
47636;BME280;33364;50.766;15.338;2023-07-22T12:20:18;95024.25;;;20.17;42.66
47636;BME280;33364;50.766;15.338;2023-07-22T12:22:44;95023.41;;;20.29;42.29
47636;BME280;33364;50.766;15.338;2023-07-22T12:25:10;95011.06;;;20.71;41.91
47636;BME280;33364;50.766;15.338;2023-07-22T12:27:37;95009.81;;;20.84;39.92
47636;BME280;33364;50.766;15.338;2023-07-22T12:30:04;95007.41;;;21.30;39.79
47636;BME280;33364;50.766;15.338;2023-07-22T12:32:30;95004.13;;;21.21;39.05
47636;BME280;33364;50.766;15.338;2023-07-22T12:34:55;95009.03;;;21.54;39.29
47636;BME280;33364;50.766;15.338;2023-07-22T12:37:21;95001.56;;;21.08;38.55
47636;BME280;33364;50.766;15.338;2023-07-22T12:39:47;95008.91;;;21.12;39.74
47636;BME280;33364;50.766;15.338;2023-07-22T12:42:13;95007.50;;;20.67;40.18
47636;BME280;33364;50.766;15.338;2023-07-22T12:44:38;95015.31;;;20.56;39.57
47636;BME280;33364;50.766;15.338;2023-07-22T12:47:04;95005.25;;;20.38;40.12
47636;BME280;33364;50.766;15.338;2023-07-22T12:49:30;94999.47;;;19.92;40.10
47636;BME280;33364;50.766;15.338;2023-07-22T12:51:56;94999.31;;;20.01;41.62
47636;BME280;33364;50.766;15.338;2023-07-22T12:54:29;95009.16;;;19.69;40.71
47636;BME280;33364;50.766;15.338;2023-07-22T12:56:56;94998.28;;;20.21;41.12
47636;BME280;33364;50.766;15.338;2023-07-22T12:59:22;95001.59;;;20.30;40.89
47636;BME280;33364;50.766;15.338;2023-07-22T13:01:48;94993.56;;;20.14;40.75
47636;BME280;33364;50.766;15.338;2023-07-22T13:04:14;94996.88;;;19.96;40.62